Portada
METAR-TAF:

METAR-TAF

Aeroports :

Jakarta, Java, Indonèsia

latitud: 06-07S, longitud: 106-39E, altitud: 8 m

Observació

L'informe es va fer fa 7 minuts, a les 08:30 UTC
Vent 7 kt del Nord
Temperatura 32°C
Humitat 59%
Pressió 1007 hPa
Visibilitat 10 km o més
Escasses núvols a una alçada de 2000 ft

METAR: WIII 120830Z 36007KT 9999 FEW020 32/23 Q1007 NOSIG

Hora: 15:37 (08:37 UTC)

Pronòstic

L'informe es va fer fa 3 hores i 37 minuts, a les 05:00 UTC
Pronòstic vàlid del 12 a les 06 UTC al 13 a les 12 UTC
Vent 10 kt del Nord
Visibilitat 10 km o més
Escasses núvols a una alçada de 2000 ft
Evolucionant progressivament
l' 12 a les 15 UTC al 12 a les 17 UTC
Vent 3 kt amb direcció variable
Visibilitat: 4000 m
calitja

TAF: WIII 120500Z 1206/1312 35010KT 9999 FEW020 BECMG 1215/1217 VRB03KT 4000 HZ

Observacions i pronòstics meteorològics de més de 4000 aeroports (METAR i TAF).

Les estacions disponibles són els punts grocs i vermells al mapa.

Posi el ratolí al punt desitjat per veure el nom de l'estació.

Feu clic per veure les observacions i els pronòstics meteorològics.

Per canviar el mapa: feu clic els botons verds amb una creu de color negre per apropar; al botó verd amb un guió per allunyar la imatge; o en les fletxes verdes per a mapes adjacents.


METAR-TAF: